Time;durP1;ratioP1;P1;durP2;ratioP2;P2;SDS_P1;SDS_P2;PMS_P1;PMS_P2;Temp;Humidity;BMP_temperature;BMP_pressure;BME280_temperature;BME280_humidity;BME280_pressure;Samples;Min_cycle;Max_cycle;Signal;HPM_P1;HPM_P2
2021/12/10 00:00:53;;;;;;;0.73;0.73;;;4.80;99.90;;;;;;5071528;28;20788;-61
2021/12/10 00:03:23;;;;;;;0.97;0.97;;;4.80;99.90;;;;;;5072093;28;20191;-61
2021/12/10 00:05:54;;;;;;;1.07;1.07;;;4.70;99.90;;;;;;5071758;28;20206;-63
2021/12/10 00:08:23;;;;;;;0.93;0.93;;;4.70;99.90;;;;;;5071562;28;20210;-61
2021/12/10 00:10:55;;;;;;;0.70;0.70;;;4.60;99.90;;;;;;5071454;28;20923;-63
2021/12/10 00:13:22;;;;;;;0.70;0.70;;;4.60;99.90;;;;;;5070860;28;20721;-63
2021/12/10 00:15:54;;;;;;;0.90;0.90;;;4.60;99.90;;;;;;5071676;28;20250;-62
2021/12/10 00:18:21;;;;;;;0.80;0.80;;;4.60;99.90;;;;;;5071634;28;20237;-60
2021/12/10 00:20:50;;;;;;;0.80;0.80;;;4.50;99.90;;;;;;5071274;28;20305;-63
2021/12/10 00:23:19;;;;;;;1.00;1.00;;;4.50;99.90;;;;;;5071329;28;20200;-61
2021/12/10 00:25:50;;;;;;;0.90;0.90;;;4.40;99.90;;;;;;5071188;28;20738;-63
2021/12/10 00:28:22;;;;;;;0.73;0.73;;;4.40;99.90;;;;;;5071439;28;20252;-62
2021/12/10 00:31:02;;;;;;;0.87;0.87;;;4.30;99.90;;;;;;5071293;28;20280;-61
2021/12/10 00:33:33;;;;;;;0.90;0.90;;;4.30;99.90;;;;;;5071509;28;20260;-61
2021/12/10 00:36:00;;;;;;;1.10;1.00;;;4.30;99.90;;;;;;5071108;28;20566;-62
2021/12/10 00:38:27;;;;;;;0.90;0.90;;;4.30;99.90;;;;;;5072396;28;20218;-61
2021/12/10 00:40:54;;;;;;;1.20;1.10;;;4.20;99.90;;;;;;5072477;28;20269;-61
2021/12/10 00:43:23;;;;;;;0.87;0.87;;;4.20;99.90;;;;;;5072416;28;20199;-60
2021/12/10 00:45:50;;;;;;;1.10;1.00;;;4.10;99.90;;;;;;5073770;28;20599;-61
2021/12/10 00:48:17;;;;;;;0.90;0.90;;;4.10;99.90;;;;;;5074712;28;20553;-59
2021/12/10 00:50:47;;;;;;;1.10;1.10;;;4.00;99.90;;;;;;5075260;28;20311;-59
2021/12/10 00:53:15;;;;;;;0.80;0.80;;;3.80;99.90;;;;;;5074868;28;20213;-60
2021/12/10 00:55:42;;;;;;;1.20;1.10;;;3.80;99.90;;;;;;5074772;28;20293;-60
2021/12/10 00:58:09;;;;;;;0.83;0.83;;;3.70;99.90;;;;;;5074423;28;20309;-61
2021/12/10 01:00:50;;;;;;;1.00;1.00;;;3.80;99.90;;;;;;5074760;28;20289;-62
2021/12/10 01:03:19;;;;;;;0.87;0.87;;;3.70;99.90;;;;;;5074504;28;20571;-61
2021/12/10 01:05:52;;;;;;;0.80;0.80;;;3.70;99.90;;;;;;5074564;28;20205;-61
2021/12/10 01:08:19;;;;;;;1.00;1.00;;;3.70;99.90;;;;;;5074589;28;20210;-62
2021/12/10 01:10:50;;;;;;;0.93;0.93;;;3.70;99.90;;;;;;5074509;28;20207;-61
2021/12/10 01:13:25;;;;;;;1.10;1.00;;;3.60;99.90;;;;;;5074076;28;20213;-62
2021/12/10 01:16:13;;;;;;;1.00;0.90;;;3.70;99.90;;;;;;5074387;28;20226;-61
2021/12/10 01:24:37;;;;;;;0.80;0.80;;;3.70;99.90;;;;;;5073862;28;20226;-62
2021/12/10 01:27:12;;;;;;;0.80;0.80;;;3.60;99.90;;;;;;5073895;28;20620;-62
2021/12/10 01:29:43;;;;;;;1.23;0.73;;;3.60;99.90;;;;;;5074209;28;20210;-63
2021/12/10 01:32:14;;;;;;;1.10;1.00;;;3.60;99.90;;;;;;5074163;28;20376;-63
2021/12/10 01:34:42;;;;;;;1.00;1.00;;;3.50;99.90;;;;;;5074067;28;20298;-62
2021/12/10 01:37:11;;;;;;;0.90;0.90;;;3.50;99.90;;;;;;5073989;28;20696;-63
2021/12/10 01:39:41;;;;;;;0.87;0.87;;;3.40;99.90;;;;;;5074137;28;20573;-61
2021/12/10 01:42:17;;;;;;;0.90;0.90;;;3.40;99.90;;;;;;5074158;28;20653;-62
2021/12/10 01:44:50;;;;;;;1.07;0.97;;;3.40;99.90;;;;;;5074388;28;20222;-62
2021/12/10 01:47:21;;;;;;;0.80;0.80;;;3.40;99.90;;;;;;5073766;28;20241;-61
2021/12/10 01:49:49;;;;;;;1.13;1.10;;;3.40;99.90;;;;;;5074159;28;20199;-62
2021/12/10 01:52:18;;;;;;;0.90;0.90;;;3.40;99.90;;;;;;5073617;28;20310;-62
2021/12/10 01:54:48;;;;;;;0.83;0.83;;;3.40;99.90;;;;;;5072931;28;20203;-62
2021/12/10 01:57:17;;;;;;;1.00;0.80;;;3.40;99.90;;;;;;5075644;28;20689;-61
2021/12/10 01:59:46;;;;;;;0.80;0.80;;;3.40;99.90;;;;;;5092020;28;20203;-61
2021/12/10 02:02:15;;;;;;;0.80;0.80;;;3.40;99.90;;;;;;5093867;28;20313;-62
2021/12/10 02:04:45;;;;;;;1.07;0.97;;;3.40;99.90;;;;;;5087907;28;20211;-62
2021/12/10 02:07:15;;;;;;;1.00;0.90;;;3.40;99.90;;;;;;5073289;28;20253;-61
2021/12/10 02:09:42;;;;;;;1.13;1.10;;;3.40;99.90;;;;;;5072654;28;20283;-62
2021/12/10 02:12:09;;;;;;;0.90;0.90;;;3.40;99.90;;;;;;5073029;28;20227;-62
2021/12/10 02:14:37;;;;;;;0.70;0.70;;;3.30;99.90;;;;;;5073189;28;20631;-61
2021/12/10 02:17:05;;;;;;;0.70;0.70;;;3.30;99.90;;;;;;5071670;28;20303;-62
2021/12/10 02:19:32;;;;;;;1.07;1.07;;;3.30;99.90;;;;;;5073052;28;20290;-62
2021/12/10 02:22:01;;;;;;;1.03;1.03;;;3.30;99.90;;;;;;5073804;28;20222;-61
2021/12/10 02:24:28;;;;;;;0.90;0.90;;;3.20;99.90;;;;;;5072893;28;20211;-63
2021/12/10 02:26:57;;;;;;;0.70;0.70;;;3.20;99.90;;;;;;5072638;28;20631;-61
2021/12/10 02:29:28;;;;;;;0.80;0.80;;;3.20;99.90;;;;;;5073149;28;20291;-61
2021/12/10 02:31:55;;;;;;;0.90;0.90;;;3.20;99.90;;;;;;5073276;28;20310;-60
2021/12/10 02:34:23;;;;;;;0.90;0.90;;;3.10;99.90;;;;;;5074845;28;20295;-62
2021/12/10 02:36:50;;;;;;;0.80;0.80;;;3.10;99.90;;;;;;5076196;28;20241;-62
2021/12/10 02:39:22;;;;;;;0.57;0.57;;;3.10;99.90;;;;;;5076281;28;20226;-62
2021/12/10 02:41:49;;;;;;;0.80;0.80;;;3.00;99.90;;;;;;5075259;28;20227;-62
2021/12/10 02:44:20;;;;;;;1.13;1.03;;;3.10;99.90;;;;;;5074958;28;20205;-62
2021/12/10 02:46:47;;;;;;;1.10;1.00;;;3.00;99.90;;;;;;5073136;28;20203;-62
2021/12/10 02:49:15;;;;;;;0.83;0.80;;;3.00;99.90;;;;;;5073468;28;20188;-60
2021/12/10 02:51:43;;;;;;;0.80;0.80;;;3.00;99.90;;;;;;5073001;28;20759;-60
2021/12/10 02:54:14;;;;;;;0.90;0.90;;;3.00;99.90;;;;;;5072906;28;20234;-60
2021/12/10 02:56:44;;;;;;;1.20;1.20;;;3.00;99.90;;;;;;5072373;28;20199;-62
2021/12/10 02:59:11;;;;;;;1.53;1.00;;;3.00;99.90;;;;;;5072741;28;20197;-59
2021/12/10 03:01:42;;;;;;;1.00;1.00;;;2.90;99.90;;;;;;5072834;28;20637;-61
2021/12/10 03:04:10;;;;;;;0.87;0.87;;;3.00;99.90;;;;;;5072542;28;20278;-61
2021/12/10 03:06:40;;;;;;;1.17;1.10;;;3.00;99.90;;;;;;5072327;28;20207;-62
2021/12/10 03:09:07;;;;;;;1.23;0.90;;;3.00;99.90;;;;;;5071967;28;20211;-61
2021/12/10 03:11:37;;;;;;;0.80;0.80;;;3.00;99.90;;;;;;5090510;22;20331;-61
2021/12/10 03:14:10;;;;;;;0.90;0.90;;;3.00;99.90;;;;;;5061359;28;21055;-63
2021/12/10 03:16:38;;;;;;;0.90;0.90;;;3.10;99.90;;;;;;5073344;28;20298;-62
2021/12/10 03:19:06;;;;;;;0.80;0.80;;;3.10;99.90;;;;;;5072208;28;20239;-62
2021/12/10 03:21:34;;;;;;;0.70;0.70;;;3.10;99.90;;;;;;5071479;28;20262;-62
2021/12/10 03:24:02;;;;;;;1.10;1.00;;;3.10;99.90;;;;;;5071604;28;20263;-61
2021/12/10 03:26:29;;;;;;;0.90;0.90;;;3.10;99.90;;;;;;5070989;28;20436;-61
2021/12/10 03:28:56;;;;;;;0.97;0.97;;;3.00;99.90;;;;;;5071644;28;20203;-62
2021/12/10 03:31:26;;;;;;;1.00;1.00;;;3.10;99.90;;;;;;5071553;28;20226;-61
2021/12/10 03:33:54;;;;;;;0.77;0.77;;;3.00;99.90;;;;;;5071642;28;20286;-62
2021/12/10 03:36:22;;;;;;;0.90;0.90;;;3.00;99.90;;;;;;5071187;28;20294;-62
2021/12/10 03:38:50;;;;;;;0.93;0.93;;;3.00;99.90;;;;;;5071301;28;20298;-61
2021/12/10 03:41:17;;;;;;;0.80;0.80;;;3.10;99.90;;;;;;5071508;28;20242;-62
2021/12/10 03:43:45;;;;;;;0.87;0.87;;;3.10;99.90;;;;;;5071744;28;20380;-62
2021/12/10 03:46:12;;;;;;;0.60;0.60;;;3.20;99.90;;;;;;5071018;28;20247;-61
2021/12/10 03:48:45;;;;;;;0.60;0.60;;;3.10;99.90;;;;;;5075387;28;20207;-61
2021/12/10 03:51:15;;;;;;;0.63;0.63;;;3.10;99.90;;;;;;5076768;28;20248;-61
2021/12/10 03:53:42;;;;;;;1.03;1.00;;;3.10;99.90;;;;;;5074359;28;20227;-62
2021/12/10 03:56:13;;;;;;;1.10;0.90;;;3.10;99.90;;;;;;5071603;28;20638;-62
2021/12/10 03:58:41;;;;;;;1.03;1.03;;;3.10;99.90;;;;;;5072243;28;20249;-63
2021/12/10 04:01:11;;;;;;;0.97;0.97;;;3.10;99.90;;;;;;5072467;28;20290;-62
2021/12/10 04:03:39;;;;;;;1.00;1.00;;;3.10;99.90;;;;;;5071916;28;20610;-62
2021/12/10 04:06:07;;;;;;;0.87;0.80;;;3.10;99.90;;;;;;5071458;28;20305;-62
2021/12/10 04:08:35;;;;;;;1.13;1.03;;;3.10;99.90;;;;;;5075681;28;20238;-62
2021/12/10 04:11:03;;;;;;;1.20;0.90;;;3.10;99.90;;;;;;5085944;28;20217;-63
2021/12/10 04:13:30;;;;;;;0.60;0.60;;;3.10;99.90;;;;;;5084628;28;20273;-61
2021/12/10 04:15:57;;;;;;;0.80;0.80;;;3.10;99.90;;;;;;5075675;28;20396;-62
2021/12/10 04:18:24;;;;;;;0.70;0.70;;;3.10;99.90;;;;;;5073165;28;20231;-62
2021/12/10 04:20:52;;;;;;;0.80;0.80;;;3.10;99.90;;;;;;5074760;28;20703;-62
2021/12/10 04:23:22;;;;;;;0.60;0.60;;;3.10;99.90;;;;;;5076915;28;20262;-62
2021/12/10 04:25:49;;;;;;;0.73;0.73;;;3.10;99.90;;;;;;5077174;28;20634;-61
2021/12/10 04:28:19;;;;;;;0.80;0.80;;;3.10;99.90;;;;;;5076530;28;20234;-61
2021/12/10 04:30:47;;;;;;;0.80;0.80;;;3.00;99.90;;;;;;5076285;28;20199;-61
2021/12/10 04:33:16;;;;;;;0.80;0.80;;;3.00;99.90;;;;;;5084723;28;20245;-62
2021/12/10 04:35:44;;;;;;;0.83;0.83;;;3.10;99.90;;;;;;5089516;28;20290;-61
2021/12/10 04:38:12;;;;;;;0.70;0.70;;;3.00;99.90;;;;;;5079124;28;20275;-61
2021/12/10 04:40:41;;;;;;;0.90;0.90;;;3.00;99.90;;;;;;5076052;28;20309;-62
2021/12/10 04:43:08;;;;;;;0.60;0.60;;;3.10;99.90;;;;;;5076281;28;20233;-61
2021/12/10 04:45:35;;;;;;;1.00;0.90;;;3.10;99.90;;;;;;5076319;28;20231;-62
2021/12/10 04:48:02;;;;;;;1.00;1.00;;;3.10;99.90;;;;;;5076222;28;20610;-62
2021/12/10 04:50:30;;;;;;;0.90;0.90;;;3.00;99.90;;;;;;5076792;28;20234;-62
2021/12/10 04:52:57;;;;;;;0.90;0.90;;;3.10;99.90;;;;;;5077222;28;20227;-62
2021/12/10 04:55:24;;;;;;;1.13;1.07;;;3.00;99.90;;;;;;5076065;28;20199;-62
2021/12/10 04:57:53;;;;;;;1.00;1.00;;;3.10;99.90;;;;;;5074900;28;20286;-62
2021/12/10 05:00:26;;;;;;;0.80;0.80;;;3.10;99.90;;;;;;5075707;28;20266;-62
2021/12/10 05:02:54;;;;;;;0.80;0.80;;;3.20;99.90;;;;;;5076314;28;20227;-62
2021/12/10 05:05:21;;;;;;;1.33;1.23;;;3.20;99.90;;;;;;5075720;28;20213;-61
2021/12/10 05:07:48;;;;;;;0.90;0.90;;;3.20;99.90;;;;;;5074781;28;20701;-63
2021/12/10 05:10:17;;;;;;;0.70;0.70;;;3.20;99.90;;;;;;5075005;28;20203;-62
2021/12/10 05:12:45;;;;;;;1.10;0.87;;;3.20;99.90;;;;;;5074698;28;20322;-61
2021/12/10 05:15:17;;;;;;;0.80;0.80;;;3.10;99.90;;;;;;5075040;28;20297;-61
2021/12/10 05:17:44;;;;;;;1.00;0.90;;;3.10;99.90;;;;;;5074482;28;20779;-62
2021/12/10 05:20:15;;;;;;;0.80;0.80;;;3.10;99.90;;;;;;5073890;28;20235;-61
2021/12/10 05:22:44;;;;;;;0.70;0.70;;;3.10;99.90;;;;;;5073876;28;20266;-61
2021/12/10 05:25:12;;;;;;;1.00;1.00;;;3.20;99.90;;;;;;5073709;28;20242;-62
2021/12/10 05:27:41;;;;;;;0.87;0.87;;;3.10;99.90;;;;;;5073788;28;20246;-61
2021/12/10 05:30:11;;;;;;;0.80;0.80;;;3.20;99.90;;;;;;5073632;28;20199;-62
2021/12/10 05:32:39;;;;;;;1.10;1.10;;;3.30;99.90;;;;;;5073214;28;20223;-63
2021/12/10 05:35:07;;;;;;;1.00;1.00;;;3.30;99.90;;;;;;5073835;28;20628;-61
2021/12/10 05:37:35;;;;;;;0.70;0.70;;;3.30;99.90;;;;;;5074533;28;20277;-61
2021/12/10 05:40:02;;;;;;;0.90;0.90;;;3.40;99.90;;;;;;5074085;28;20257;-61
2021/12/10 05:42:29;;;;;;;0.90;0.90;;;3.40;99.90;;;;;;5074235;28;20310;-62
2021/12/10 05:44:56;;;;;;;1.73;1.07;;;3.40;99.90;;;;;;5074227;28;20290;-63
2021/12/10 05:47:23;;;;;;;0.90;0.90;;;3.40;99.90;;;;;;5074440;28;20369;-61
2021/12/10 05:49:51;;;;;;;1.03;1.03;;;3.30;99.90;;;;;;5074474;28;20314;-62
2021/12/10 05:52:19;;;;;;;0.80;0.80;;;3.30;99.90;;;;;;5074439;28;20712;-61
2021/12/10 05:54:46;;;;;;;0.90;0.90;;;3.30;99.90;;;;;;5074121;28;20203;-61
2021/12/10 05:57:13;;;;;;;0.90;0.90;;;3.30;99.90;;;;;;5076876;28;20210;-62
2021/12/10 05:59:40;;;;;;;1.10;1.10;;;3.30;99.90;;;;;;5079817;28;20238;-62
2021/12/10 06:02:07;;;;;;;0.77;0.77;;;3.40;99.90;;;;;;5076138;28;20252;-61
2021/12/10 06:04:35;;;;;;;0.87;0.87;;;3.40;99.90;;;;;;5075587;28;20227;-61
2021/12/10 06:07:06;;;;;;;0.60;0.60;;;3.40;99.90;;;;;;5075175;28;20235;-62
2021/12/10 06:09:33;;;;;;;0.80;0.80;;;3.40;99.90;;;;;;5075468;28;20207;-61
2021/12/10 06:12:01;;;;;;;1.00;1.00;;;3.50;99.90;;;;;;5074516;28;20799;-62
2021/12/10 06:14:28;;;;;;;0.80;0.80;;;3.50;99.90;;;;;;5074350;28;20613;-62
2021/12/10 06:16:55;;;;;;;0.80;0.80;;;3.50;99.90;;;;;;5074763;28;20235;-62
2021/12/10 06:19:23;;;;;;;0.80;0.80;;;3.50;99.90;;;;;;5078059;28;20270;-62
2021/12/10 06:21:50;;;;;;;0.77;0.77;;;3.50;99.90;;;;;;5079789;28;20276;-61
2021/12/10 06:24:19;;;;;;;1.00;1.00;;;3.60;99.90;;;;;;5075541;28;20619;-62
2021/12/10 06:26:46;;;;;;;0.70;0.70;;;3.60;99.90;;;;;;5074987;28;20349;-61
2021/12/10 06:29:13;;;;;;;0.73;0.73;;;3.70;99.90;;;;;;5073595;28;20242;-62
2021/12/10 06:31:41;;;;;;;0.80;0.80;;;3.70;99.90;;;;;;5091201;28;20258;-61
2021/12/10 06:34:07;;;;;;;0.70;0.70;;;3.80;99.90;;;;;;5078227;28;20674;-63
2021/12/10 06:36:35;;;;;;;0.80;0.80;;;3.70;99.90;;;;;;5072374;28;20207;-64
2021/12/10 06:39:04;;;;;;;0.70;0.70;;;3.80;99.90;;;;;;5072574;28;20614;-62
2021/12/10 06:41:33;;;;;;;0.70;0.70;;;3.80;99.90;;;;;;5072814;28;20258;-62
2021/12/10 06:44:04;;;;;;;0.60;0.60;;;3.80;99.90;;;;;;5072022;28;20311;-62
2021/12/10 06:46:31;;;;;;;0.70;0.70;;;3.90;99.90;;;;;;5079551;28;20250;-62
2021/12/10 06:48:58;;;;;;;1.10;1.00;;;3.90;99.90;;;;;;5082239;28;20238;-62
2021/12/10 06:51:26;;;;;;;0.80;0.80;;;3.90;99.90;;;;;;5085423;28;20207;-62
2021/12/10 06:53:53;;;;;;;0.80;0.80;;;3.90;99.90;;;;;;5093808;28;20207;-62
2021/12/10 06:56:21;;;;;;;0.60;0.60;;;3.90;99.90;;;;;;5090221;28;20203;-63
2021/12/10 06:58:50;;;;;;;0.67;0.67;;;4.00;99.90;;;;;;5086374;28;20207;-62
2021/12/10 07:01:22;;;;;;;0.80;0.80;;;4.00;99.90;;;;;;5077834;28;20207;-63
2021/12/10 07:03:50;;;;;;;0.40;0.40;;;4.00;99.90;;;;;;5077588;28;20222;-61
2021/12/10 07:06:18;;;;;;;0.80;0.80;;;4.00;99.90;;;;;;5076115;28;20207;-62
2021/12/10 07:08:47;;;;;;;0.80;0.80;;;4.00;99.90;;;;;;5075468;28;20214;-62
2021/12/10 07:11:16;;;;;;;0.60;0.60;;;4.00;99.90;;;;;;5074873;28;20241;-62
2021/12/10 07:13:46;;;;;;;0.50;0.50;;;4.00;99.90;;;;;;5073979;28;20227;-62
2021/12/10 07:16:15;;;;;;;0.70;0.70;;;4.10;99.90;;;;;;5074481;28;20627;-62
2021/12/10 07:18:42;;;;;;;0.50;0.50;;;4.10;99.90;;;;;;5075390;28;20263;-62
2021/12/10 07:21:10;;;;;;;0.90;0.90;;;4.20;99.90;;;;;;5077665;28;20218;-62
2021/12/10 07:23:37;;;;;;;1.07;0.80;;;4.20;99.90;;;;;;5076135;28;20321;-62
2021/12/10 07:26:05;;;;;;;0.70;0.70;;;4.30;99.90;;;;;;5076617;28;20207;-61
2021/12/10 07:28:32;;;;;;;0.70;0.70;;;4.30;99.90;;;;;;5073982;28;20237;-62
2021/12/10 07:31:01;;;;;;;0.70;0.70;;;4.40;99.90;;;;;;5061075;28;20200;-64
2021/12/10 07:33:29;;;;;;;0.70;0.70;;;4.40;99.90;;;;;;5067695;28;20242;-61
2021/12/10 07:35:57;;;;;;;0.93;0.93;;;4.40;99.90;;;;;;5058994;28;20287;-61
2021/12/10 07:38:24;;;;;;;0.80;0.80;;;4.50;99.90;;;;;;5056544;28;20250;-62
2021/12/10 07:40:52;;;;;;;1.17;1.00;;;4.40;99.90;;;;;;5051799;28;20210;-63
2021/12/10 07:43:20;;;;;;;0.83;0.83;;;4.20;99.90;;;;;;5051698;28;20228;-62
2021/12/10 07:45:50;;;;;;;1.30;1.20;;;4.00;99.90;;;;;;5052247;28;20204;-63
2021/12/10 07:48:19;;;;;;;0.93;0.93;;;3.90;99.90;;;;;;5057773;28;20735;-63
2021/12/10 07:50:53;;;;;;;0.90;0.90;;;3.80;99.90;;;;;;5063272;28;20195;-63
2021/12/10 07:53:21;;;;;;;0.90;0.90;;;3.70;99.90;;;;;;5064764;28;20295;-61
2021/12/10 07:55:49;;;;;;;0.90;0.90;;;3.70;99.90;;;;;;5065390;28;20290;-63
2021/12/10 07:58:16;;;;;;;0.80;0.80;;;3.90;99.90;;;;;;5075355;28;20207;-61
2021/12/10 08:00:46;;;;;;;0.80;0.80;;;4.00;99.90;;;;;;5070406;28;20562;-61
2021/12/10 08:03:13;;;;;;;0.90;0.90;;;4.00;99.90;;;;;;5056850;28;20293;-62
2021/12/10 08:05:41;;;;;;;0.70;0.70;;;4.20;99.90;;;;;;5043989;28;20206;-62
2021/12/10 08:08:11;;;;;;;0.80;0.80;;;4.30;99.90;;;;;;5052385;28;20212;-61
2021/12/10 08:10:39;;;;;;;0.80;0.80;;;4.30;99.90;;;;;;5044447;28;20208;-63
2021/12/10 08:13:07;;;;;;;0.80;0.80;;;4.20;99.90;;;;;;5062019;28;20315;-62
2021/12/10 08:15:34;;;;;;;0.70;0.70;;;4.10;99.90;;;;;;5056683;28;20680;-63
2021/12/10 08:18:02;;;;;;;0.70;0.70;;;4.10;99.90;;;;;;5056347;28;20269;-62
2021/12/10 08:20:29;;;;;;;0.70;0.70;;;4.20;99.90;;;;;;5056560;28;20295;-63
2021/12/10 08:22:57;;;;;;;0.70;0.70;;;4.30;99.90;;;;;;5057489;28;20302;-62
2021/12/10 08:25:27;;;;;;;0.80;0.80;;;4.20;99.90;;;;;;5056690;28;20231;-64
2021/12/10 08:27:56;;;;;;;0.90;0.90;;;4.30;99.90;;;;;;5072612;28;20266;-61
2021/12/10 08:30:24;;;;;;;0.63;0.63;;;4.30;99.90;;;;;;5079051;28;20227;-61
2021/12/10 08:32:55;;;;;;;0.73;0.73;;;4.20;99.90;;;;;;5063881;28;20239;-62
2021/12/10 08:35:24;;;;;;;0.70;0.70;;;4.20;99.90;;;;;;5058942;28;20215;-62
2021/12/10 08:37:51;;;;;;;0.70;0.70;;;4.20;99.90;;;;;;5057558;28;20204;-63
2021/12/10 08:40:22;;;;;;;0.77;0.77;;;4.20;99.90;;;;;;5074654;28;20268;-63
2021/12/10 08:42:52;;;;;;;1.10;1.10;;;4.10;99.90;;;;;;5070053;28;20285;-62
2021/12/10 08:45:20;;;;;;;0.83;0.83;;;4.10;99.90;;;;;;5063827;28;20714;-62
2021/12/10 08:47:48;;;;;;;0.80;0.80;;;4.00;99.90;;;;;;5057254;28;20199;-61
2021/12/10 08:50:18;;;;;;;0.90;0.90;;;4.00;99.90;;;;;;5055654;28;20231;-62
2021/12/10 08:52:45;;;;;;;0.90;0.90;;;4.00;99.90;;;;;;5059468;28;20609;-62
2021/12/10 08:55:13;;;;;;;1.10;0.90;;;4.00;99.90;;;;;;5062619;28;20199;-63
2021/12/10 08:57:40;;;;;;;1.00;1.00;;;4.00;99.90;;;;;;5072314;28;20204;-63
2021/12/10 09:00:17;;;;;;;0.80;0.80;;;4.00;99.90;;;;;;5064891;28;20208;-63
2021/12/10 09:02:44;;;;;;;0.90;0.90;;;4.10;99.90;;;;;;5069163;28;20219;-61
2021/12/10 09:05:12;;;;;;;0.97;0.97;;;4.00;99.90;;;;;;5057851;28;20302;-61
2021/12/10 09:07:42;;;;;;;0.67;0.67;;;4.10;99.90;;;;;;5059048;28;20283;-62
2021/12/10 09:10:10;;;;;;;0.80;0.80;;;4.00;99.90;;;;;;5057939;28;20238;-62
2021/12/10 09:12:38;;;;;;;0.60;0.60;;;3.90;99.90;;;;;;5075277;22;20243;-60
2021/12/10 09:15:06;;;;;;;0.80;0.80;;;3.90;99.90;;;;;;5073963;28;20238;-63
2021/12/10 09:17:37;;;;;;;0.60;0.60;;;3.90;99.90;;;;;;5075777;28;20214;-60
2021/12/10 09:20:14;;;;;;;0.90;0.90;;;3.90;99.90;;;;;;5078451;28;20664;-61
2021/12/10 09:22:41;;;;;;;0.70;0.70;;;4.00;99.90;;;;;;5092239;28;20214;-63
2021/12/10 09:25:09;;;;;;;0.87;0.87;;;4.00;99.90;;;;;;5094463;28;20261;-61
2021/12/10 09:27:38;;;;;;;0.70;0.70;;;4.00;99.90;;;;;;5092922;28;20206;-61
2021/12/10 09:30:07;;;;;;;0.80;0.80;;;4.00;99.90;;;;;;5093963;28;20241;-61
2021/12/10 09:32:36;;;;;;;0.70;0.70;;;4.00;99.90;;;;;;5094189;28;20632;-61
2021/12/10 09:35:06;;;;;;;0.70;0.70;;;4.10;99.90;;;;;;5093990;28;20704;-62
2021/12/10 09:37:33;;;;;;;0.60;0.60;;;4.10;99.90;;;;;;5094430;28;20236;-60
2021/12/10 09:40:00;;;;;;;0.60;0.60;;;4.10;99.90;;;;;;5094903;28;20209;-61
2021/12/10 09:42:27;;;;;;;0.90;0.90;;;4.10;99.90;;;;;;5094878;28;20261;-62
2021/12/10 09:44:56;;;;;;;0.70;0.70;;;4.10;99.90;;;;;;5093499;28;20258;-62
2021/12/10 09:47:23;;;;;;;0.50;0.50;;;4.10;99.90;;;;;;5094196;28;20238;-62
2021/12/10 09:49:54;;;;;;;0.60;0.60;;;4.10;99.90;;;;;;5094068;28;20210;-61
2021/12/10 09:52:25;;;;;;;0.53;0.53;;;4.20;99.90;;;;;;5094034;28;20227;-61
2021/12/10 09:54:52;;;;;;;0.53;0.53;;;4.20;99.90;;;;;;5093747;28;20660;-62
2021/12/10 09:57:23;;;;;;;0.60;0.60;;;4.20;99.90;;;;;;5093347;28;20234;-61
2021/12/10 09:59:52;;;;;;;0.60;0.60;;;4.30;99.90;;;;;;5094036;28;20187;-62
2021/12/10 10:02:20;;;;;;;0.80;0.80;;;4.30;99.90;;;;;;5093496;28;20309;-62
2021/12/10 10:04:50;;;;;;;0.50;0.50;;;4.40;99.90;;;;;;5093501;28;20226;-61
2021/12/10 10:07:22;;;;;;;0.60;0.60;;;4.40;99.90;;;;;;5093508;28;20210;-61
2021/12/10 10:09:51;;;;;;;0.70;0.70;;;4.40;99.90;;;;;;5093769;28;20214;-62
2021/12/10 10:12:23;;;;;;;0.57;0.57;;;4.50;99.90;;;;;;5093239;28;20231;-61
2021/12/10 10:14:51;;;;;;;0.67;0.67;;;4.60;99.90;;;;;;5093485;28;20245;-62
2021/12/10 10:17:19;;;;;;;0.50;0.50;;;4.60;99.90;;;;;;5094107;28;20246;-60
2021/12/10 10:19:47;;;;;;;0.53;0.53;;;4.60;99.90;;;;;;5094503;28;20245;-62
2021/12/10 10:22:20;;;;;;;0.60;0.60;;;4.60;99.90;;;;;;5093788;28;20294;-61
2021/12/10 10:24:47;;;;;;;0.40;0.40;;;4.70;99.90;;;;;;5094561;28;20223;-61
2021/12/10 10:27:17;;;;;;;0.50;0.50;;;4.70;99.90;;;;;;5093442;28;20237;-62
2021/12/10 10:29:49;;;;;;;0.57;0.57;;;4.70;99.90;;;;;;5093629;28;20289;-59
2021/12/10 10:32:19;;;;;;;0.50;0.50;;;4.70;99.90;;;;;;5093258;28;20619;-61
2021/12/10 10:34:49;;;;;;;0.80;0.80;;;4.70;99.90;;;;;;5093200;28;20264;-61
2021/12/10 10:37:18;;;;;;;0.50;0.50;;;4.80;99.90;;;;;;5093248;28;20294;-60
2021/12/10 10:39:46;;;;;;;0.50;0.50;;;4.70;99.90;;;;;;5092986;28;20203;-63
2021/12/10 10:42:16;;;;;;;0.40;0.40;;;4.70;99.90;;;;;;5093084;28;20198;-61
2021/12/10 10:44:44;;;;;;;0.50;0.50;;;4.70;99.90;;;;;;5093014;28;20215;-61
2021/12/10 10:47:11;;;;;;;0.53;0.53;;;4.80;99.90;;;;;;5092752;28;20248;-61
2021/12/10 10:49:42;;;;;;;0.50;0.50;;;4.80;99.90;;;;;;5093052;28;20211;-62
2021/12/10 10:52:15;;;;;;;0.40;0.40;;;4.90;99.90;;;;;;5092712;28;20289;-62
2021/12/10 10:54:45;;;;;;;0.40;0.40;;;4.90;99.90;;;;;;5093058;28;20258;-62
2021/12/10 10:57:14;;;;;;;0.50;0.50;;;5.00;99.90;;;;;;5092621;28;20206;-60
2021/12/10 10:59:42;;;;;;;0.53;0.53;;;5.00;99.90;;;;;;5093008;28;20210;-60
2021/12/10 11:02:11;;;;;;;0.50;0.50;;;5.10;99.90;;;;;;5092674;28;20673;-60
2021/12/10 11:04:42;;;;;;;0.50;0.50;;;5.20;99.90;;;;;;5092643;28;20219;-61
2021/12/10 11:07:13;;;;;;;0.33;0.33;;;5.20;99.90;;;;;;5092570;28;20198;-63
2021/12/10 11:09:47;;;;;;;0.77;0.77;;;5.10;99.90;;;;;;5092690;28;20297;-61
2021/12/10 11:12:19;;;;;;;1.00;1.00;;;5.20;99.90;;;;;;5092602;28;20183;-62
2021/12/10 11:14:50;;;;;;;0.70;0.70;;;5.20;99.90;;;;;;5092428;28;20633;-62
2021/12/10 11:17:19;;;;;;;0.60;0.60;;;5.20;99.90;;;;;;5092657;28;20253;-62
2021/12/10 11:19:52;;;;;;;0.60;0.60;;;5.20;99.90;;;;;;5092656;28;20230;-62
2021/12/10 11:22:21;;;;;;;0.50;0.50;;;5.20;99.90;;;;;;5092289;28;20254;-63
2021/12/10 11:24:55;;;;;;;0.53;0.53;;;5.20;99.90;;;;;;5092290;28;20264;-61
2021/12/10 11:27:26;;;;;;;0.50;0.50;;;5.30;99.90;;;;;;5092184;28;20210;-63
2021/12/10 11:29:55;;;;;;;0.63;0.63;;;5.30;99.90;;;;;;5091615;28;20198;-62
2021/12/10 11:32:31;;;;;;;0.50;0.50;;;5.30;99.90;;;;;;5092364;28;20233;-62
2021/12/10 11:35:06;;;;;;;0.50;0.50;;;5.30;99.90;;;;;;5092081;28;20632;-61
2021/12/10 11:37:56;;;;;;;0.60;0.60;;;5.30;99.90;;;;;;5091704;28;20221;-61
2021/12/10 11:40:40;;;;;;;0.63;0.63;;;5.30;99.90;;;;;;5083308;28;20203;-62
2021/12/10 11:43:32;;;;;;;0.80;0.80;;;5.30;99.90;;;;;;5054687;28;20337;-62
2021/12/10 11:46:15;;;;;;;0.70;0.70;;;5.30;99.90;;;;;;5059914;28;20297;-62
2021/12/10 11:48:46;;;;;;;0.73;0.73;;;5.30;99.90;;;;;;5059712;28;20662;-60
2021/12/10 11:51:16;;;;;;;0.60;0.60;;;5.40;99.90;;;;;;5083438;28;20195;-60
2021/12/10 11:53:46;;;;;;;0.70;0.70;;;5.40;99.90;;;;;;5092319;28;20313;-64
2021/12/10 11:56:19;;;;;;;0.70;0.70;;;5.50;99.90;;;;;;5091643;28;20208;-62
2021/12/10 11:59:04;;;;;;;0.60;0.60;;;5.50;99.90;;;;;;5091659;28;20283;-61
2021/12/10 12:01:31;;;;;;;0.50;0.50;;;5.50;99.90;;;;;;5091843;28;20193;-60
2021/12/10 12:03:59;;;;;;;0.50;0.50;;;5.60;99.90;;;;;;5091562;28;20317;-61
2021/12/10 12:06:26;;;;;;;0.40;0.40;;;5.60;99.90;;;;;;5091070;28;20229;-61
2021/12/10 12:08:52;;;;;;;0.50;0.50;;;5.60;99.90;;;;;;5073825;28;20269;-61
2021/12/10 12:11:21;;;;;;;0.70;0.70;;;5.70;99.90;;;;;;5049070;28;20224;-61
2021/12/10 12:13:55;;;;;;;0.40;0.40;;;5.70;99.90;;;;;;5054555;28;20263;-61
2021/12/10 12:16:27;;;;;;;0.50;0.50;;;5.70;99.90;;;;;;5056946;28;20202;-61
2021/12/10 12:19:00;;;;;;;0.70;0.70;;;5.60;99.90;;;;;;5064557;28;20253;-61
2021/12/10 12:27:16;;;;;;;0.43;0.43;;;5.70;99.90;;;;;;5063022;28;20363;-62
2021/12/10 12:29:46;;;;;;;0.50;0.50;;;5.70;99.90;;;;;;5065119;28;20224;-62
2021/12/10 12:32:17;;;;;;;0.70;0.70;;;5.70;99.90;;;;;;5083048;28;20285;-62
2021/12/10 12:34:44;;;;;;;0.40;0.40;;;5.70;99.90;;;;;;5092075;28;20190;-61
2021/12/10 12:37:13;;;;;;;0.50;0.50;;;5.70;99.90;;;;;;5091187;28;20234;-62
2021/12/10 12:39:45;;;;;;;0.40;0.40;;;5.60;99.90;;;;;;5076309;28;20299;-61
2021/12/10 12:42:22;;;;;;;0.30;0.30;;;5.60;99.90;;;;;;5073559;28;20203;-61
2021/12/10 12:44:51;;;;;;;0.50;0.50;;;5.60;99.90;;;;;;5075141;28;20222;-62
2021/12/10 12:47:20;;;;;;;0.40;0.40;;;5.60;99.90;;;;;;5074415;28;20290;-60
2021/12/10 12:49:58;;;;;;;0.30;0.30;;;5.60;99.90;;;;;;5075526;28;20207;-60
2021/12/10 12:52:29;;;;;;;0.30;0.30;;;5.60;99.90;;;;;;5064224;28;20590;-61
2021/12/10 12:55:19;;;;;;;0.30;0.30;;;5.60;99.90;;;;;;5080543;28;20617;-61
2021/12/10 12:57:51;;;;;;;0.33;0.33;;;5.60;99.90;;;;;;5088698;28;20580;-62
2021/12/10 13:00:26;;;;;;;0.30;0.30;;;5.60;99.90;;;;;;5067187;28;20290;-62
2021/12/10 13:02:56;;;;;;;0.40;0.40;;;5.60;99.90;;;;;;5067881;28;20227;-61
2021/12/10 13:05:34;;;;;;;0.40;0.40;;;5.60;99.90;;;;;;5069490;28;20306;-61
2021/12/10 13:08:09;;;;;;;0.40;0.40;;;5.60;99.90;;;;;;5075030;28;20198;-62
2021/12/10 13:10:39;;;;;;;0.30;0.30;;;5.60;99.90;;;;;;5066843;28;20261;-61
2021/12/10 13:13:13;;;;;;;0.40;0.40;;;5.70;99.90;;;;;;5071661;28;20230;-62
2021/12/10 13:15:47;;;;;;;0.40;0.40;;;5.70;99.90;;;;;;5072243;28;20321;-62
2021/12/10 13:18:14;;;;;;;0.40;0.40;;;5.80;99.90;;;;;;5063658;28;20291;-62
2021/12/10 13:20:45;;;;;;;0.80;0.80;;;5.90;99.90;;;;;;5065465;28;20231;-61